Time;durP1;ratioP1;P1;durP2;ratioP2;P2;SDS_P1;SDS_P2;PMS_P1;PMS_P2;Temp;Humidity;BMP_temperature;BMP_pressure;BME280_temperature;BME280_humidity;BME280_pressure;Samples;Min_cycle;Max_cycle;Signal;HPM_P1;HPM_P2
2021/12/04 00:00:14;;;;;;;46.22;31.42;;;16.70;91.00;;;;;;4156478;28;20088;-67
2021/12/04 00:02:18;;;;;;;41.60;31.20;;;16.60;91.10;;;;;;4159890;28;20407;-67
2021/12/04 00:04:30;;;;;;;44.83;32.75;;;16.50;91.20;;;;;;4161633;28;20049;-67
2021/12/04 00:06:38;;;;;;;51.80;30.98;;;16.60;91.20;;;;;;4163452;28;20064;-67
2021/12/04 00:08:46;;;;;;;46.85;32.20;;;16.80;91.10;;;;;;4163206;28;20061;-67
2021/12/04 00:10:51;;;;;;;51.22;33.00;;;16.80;90.90;;;;;;4163162;28;20475;-67
2021/12/04 00:12:55;;;;;;;60.10;34.55;;;16.70;91.00;;;;;;4163299;28;20064;-67
2021/12/04 00:15:00;;;;;;;53.45;35.50;;;16.80;91.00;;;;;;4163328;28;20042;-67
2021/12/04 00:17:06;;;;;;;52.03;34.03;;;16.60;91.50;;;;;;4161358;28;20132;-66
2021/12/04 00:19:10;;;;;;;54.10;33.05;;;16.50;91.50;;;;;;4164346;28;20063;-65
2021/12/04 00:21:14;;;;;;;59.88;34.92;;;16.70;91.40;;;;;;4163715;28;20052;-67
2021/12/04 00:23:19;;;;;;;52.65;34.42;;;16.60;91.30;;;;;;4164294;28;20049;-67
2021/12/04 00:25:23;;;;;;;52.38;33.05;;;16.50;91.60;;;;;;4163816;28;20056;-67
2021/12/04 00:27:28;;;;;;;49.65;32.25;;;16.70;91.30;;;;;;4173422;28;20053;-67
2021/12/04 00:29:33;;;;;;;52.90;30.58;;;16.70;90.90;;;;;;4167179;28;20065;-67
2021/12/04 00:31:37;;;;;;;51.05;33.20;;;16.90;90.80;;;;;;4163546;28;20049;-67
2021/12/04 00:33:44;;;;;;;49.42;32.78;;;17.10;90.30;;;;;;4163975;28;20071;-67
2021/12/04 00:35:54;;;;;;;58.60;35.70;;;16.90;90.60;;;;;;4164071;28;20492;-67
2021/12/04 00:49:22;;;;;;;55.80;33.70;;;17.40;89.20;;;;;;4162390;28;20072;-67
2021/12/04 00:51:26;;;;;;;59.90;34.03;;;17.50;88.80;;;;;;4163280;28;20391;-67
2021/12/04 00:53:31;;;;;;;54.65;33.30;;;17.60;88.70;;;;;;4163407;28;20041;-67
2021/12/04 00:55:35;;;;;;;46.65;31.67;;;17.50;89.00;;;;;;4162946;28;20055;-67
2021/12/04 00:57:40;;;;;;;45.90;29.73;;;17.50;88.30;;;;;;4163022;28;20435;-67
2021/12/04 00:59:44;;;;;;;52.92;30.45;;;17.40;88.30;;;;;;4162634;28;20420;-67
2021/12/04 01:01:49;;;;;;;48.28;29.50;;;17.50;88.30;;;;;;4159849;28;20056;-67
2021/12/04 01:03:54;;;;;;;47.08;28.80;;;17.60;87.70;;;;;;4162691;28;20052;-67
2021/12/04 01:05:58;;;;;;;48.08;28.95;;;17.70;86.90;;;;;;4161591;28;20642;-67
2021/12/04 01:08:03;;;;;;;43.22;26.80;;;17.70;88.10;;;;;;4161657;28;20069;-69
2021/12/04 01:10:09;;;;;;;102.18;31.00;;;17.80;87.40;;;;;;4162902;28;20041;-67
2021/12/04 01:12:13;;;;;;;50.47;25.70;;;17.80;87.20;;;;;;4162157;28;20420;-67
2021/12/04 01:14:22;;;;;;;46.83;24.27;;;17.70;87.10;;;;;;4158418;28;20537;-66
2021/12/04 01:16:26;;;;;;;51.65;24.25;;;17.90;86.30;;;;;;4158639;28;20473;-67
2021/12/04 01:18:32;;;;;;;41.28;25.67;;;17.90;86.40;;;;;;4160934;28;20068;-67
2021/12/04 01:20:37;;;;;;;43.33;23.48;;;18.00;86.10;;;;;;4160738;28;20069;-67
2021/12/04 01:22:45;;;;;;;55.92;24.65;;;17.90;84.60;;;;;;4158683;28;20049;-68
2021/12/04 01:24:50;;;;;;;45.33;23.75;;;18.00;84.80;;;;;;4154383;28;20144;-68
2021/12/04 01:26:55;;;;;;;37.08;22.42;;;18.20;83.80;;;;;;4160396;28;20049;-68
2021/12/04 01:28:59;;;;;;;35.33;21.77;;;18.30;83.50;;;;;;4160259;28;20471;-68
2021/12/04 01:31:04;;;;;;;35.42;21.88;;;18.40;82.60;;;;;;4160543;28;20055;-68
2021/12/04 01:33:08;;;;;;;34.65;22.73;;;18.40;82.20;;;;;;4161009;28;20040;-68
2021/12/04 01:35:13;;;;;;;36.28;21.65;;;18.40;81.70;;;;;;4160362;28;20419;-67
2021/12/04 01:37:17;;;;;;;37.92;22.23;;;18.50;81.80;;;;;;4160280;28;20132;-68
2021/12/04 01:39:22;;;;;;;45.65;23.08;;;18.60;81.20;;;;;;4160277;28;20080;-66
2021/12/04 01:41:35;;;;;;;38.83;21.93;;;18.70;80.30;;;;;;4160443;28;20467;-67
2021/12/04 01:43:40;;;;;;;36.50;21.77;;;18.70;79.60;;;;;;4160083;28;20076;-67
2021/12/04 01:45:44;;;;;;;37.25;21.65;;;18.80;78.50;;;;;;4155029;28;20049;-67
2021/12/04 01:47:49;;;;;;;42.15;22.10;;;18.80;78.80;;;;;;4160471;28;20053;-67
2021/12/04 01:49:54;;;;;;;37.58;24.02;;;18.90;78.30;;;;;;4160157;28;20107;-67
2021/12/04 01:51:59;;;;;;;38.70;22.70;;;19.00;77.70;;;;;;4160133;28;20606;-67
2021/12/04 01:54:04;;;;;;;39.22;21.42;;;19.00;77.40;;;;;;4159243;28;20056;-67
2021/12/04 01:56:09;;;;;;;37.25;18.85;;;19.10;76.80;;;;;;4158179;28;20076;-67
2021/12/04 01:58:13;;;;;;;28.77;17.38;;;19.20;74.40;;;;;;4158769;28;20061;-67
2021/12/04 02:00:18;;;;;;;31.08;16.15;;;19.20;73.10;;;;;;4159834;28;20073;-67
2021/12/04 02:02:22;;;;;;;30.98;15.40;;;19.30;72.30;;;;;;4159884;28;20064;-68
2021/12/04 02:04:27;;;;;;;37.80;16.63;;;19.30;72.70;;;;;;4160085;28;20543;-68
2021/12/04 02:06:31;;;;;;;30.60;14.32;;;19.30;73.50;;;;;;4159408;28;20530;-68
2021/12/04 02:08:35;;;;;;;28.83;14.65;;;19.50;69.90;;;;;;4156971;28;20045;-68
2021/12/04 02:10:42;;;;;;;27.52;13.35;;;19.70;69.60;;;;;;4156315;28;20136;-67
2021/12/04 02:12:48;;;;;;;23.73;12.50;;;19.60;69.80;;;;;;4157442;28;20088;-67
2021/12/04 02:14:52;;;;;;;28.25;12.23;;;19.70;67.70;;;;;;4156874;28;20124;-68
2021/12/04 02:16:57;;;;;;;24.08;12.27;;;19.70;67.40;;;;;;4156396;28;20080;-68
2021/12/04 02:19:01;;;;;;;24.30;12.00;;;19.90;67.60;;;;;;4154703;28;20049;-68
2021/12/04 02:21:06;;;;;;;23.95;11.60;;;19.90;67.10;;;;;;4156880;28;20088;-68
2021/12/04 02:23:15;;;;;;;20.92;11.32;;;20.00;66.50;;;;;;4156394;28;20053;-69
2021/12/04 02:25:20;;;;;;;23.75;11.40;;;20.10;65.80;;;;;;4154665;28;20041;-68
2021/12/04 02:27:24;;;;;;;19.88;9.50;;;20.10;65.40;;;;;;4155674;28;20300;-68
2021/12/04 02:29:31;;;;;;;25.10;8.68;;;20.20;62.30;;;;;;4157195;28;20466;-68
2021/12/04 02:31:35;;;;;;;19.05;8.82;;;20.30;63.50;;;;;;4156853;28;20038;-68
2021/12/04 02:33:40;;;;;;;17.45;9.00;;;20.30;62.30;;;;;;4155923;28;20045;-68
2021/12/04 02:35:52;;;;;;;20.80;9.05;;;20.30;62.40;;;;;;4156480;28;20057;-68
2021/12/04 02:37:56;;;;;;;19.10;10.02;;;20.30;63.00;;;;;;4153298;28;20053;-68
2021/12/04 02:40:01;;;;;;;23.27;10.52;;;20.40;62.80;;;;;;4155782;28;20041;-68
2021/12/04 02:42:21;;;;;;;17.65;8.35;;;20.50;63.40;;;;;;4158357;28;20477;-68
2021/12/04 02:44:41;;;;;;;18.75;8.45;;;20.60;62.50;;;;;;4155668;28;20088;-67
2021/12/04 02:46:46;;;;;;;21.08;8.25;;;20.70;62.70;;;;;;4157409;28;20049;-67
2021/12/04 02:48:50;;;;;;;19.42;8.75;;;20.80;63.10;;;;;;4156372;28;20137;-67
2021/12/04 02:50:55;;;;;;;22.35;8.10;;;20.80;63.40;;;;;;4158536;28;20160;-67
2021/12/04 02:52:59;;;;;;;21.33;8.55;;;20.90;63.60;;;;;;4158995;28;20046;-67
2021/12/04 02:55:04;;;;;;;17.33;8.35;;;21.00;63.50;;;;;;4156463;28;20499;-68
2021/12/04 02:57:09;;;;;;;18.30;7.75;;;20.90;64.20;;;;;;4158214;28;20112;-67
2021/12/04 02:59:13;;;;;;;16.42;7.35;;;21.10;63.80;;;;;;4155706;28;20057;-67
2021/12/04 03:01:18;;;;;;;26.25;9.15;;;21.10;63.90;;;;;;4156241;28;20045;-67
2021/12/04 03:03:24;;;;;;;35.17;8.32;;;21.10;64.80;;;;;;4130741;28;20058;-67
2021/12/04 03:05:29;;;;;;;21.30;8.70;;;21.10;64.40;;;;;;4155990;28;20076;-67
2021/12/04 03:07:34;;;;;;;13.80;7.85;;;21.10;64.00;;;;;;4153845;28;20778;-67
2021/12/04 03:09:41;;;;;;;15.00;7.95;;;21.30;63.50;;;;;;4155602;28;20053;-67
2021/12/04 03:11:45;;;;;;;18.52;8.95;;;21.30;63.70;;;;;;4155954;28;20091;-67
2021/12/04 03:13:49;;;;;;;20.58;7.90;;;21.20;63.90;;;;;;4155482;28;20428;-68
2021/12/04 03:16:00;;;;;;;18.52;8.95;;;21.30;64.40;;;;;;4155795;28;20168;-67
2021/12/04 03:18:05;;;;;;;50.20;24.33;;;21.30;64.90;;;;;;4156144;28;20053;-68
2021/12/04 03:20:11;;;;;;;26.00;13.50;;;21.40;65.60;;;;;;4156380;28;20144;-67
2021/12/04 03:22:18;;;;;;;23.27;8.98;;;21.40;66.00;;;;;;4155826;28;20045;-67
2021/12/04 03:24:24;;;;;;;22.90;8.02;;;21.50;65.90;;;;;;4153874;28;20083;-68
2021/12/04 03:26:28;;;;;;;29.90;9.15;;;21.70;65.30;;;;;;4155785;28;20064;-67
2021/12/04 03:28:33;;;;;;;18.02;8.85;;;21.70;65.50;;;;;;4138529;28;20580;-66
2021/12/04 03:30:52;;;;;;;19.52;8.60;;;21.70;65.20;;;;;;4157180;28;20077;-66
2021/12/04 03:40:02;;;;;;;18.58;8.70;;;21.70;65.60;;;;;;4156058;28;20044;-66
2021/12/04 03:40:10;;;;;;;22.92;8.38;;;21.90;66.40;;;;;;4158415;28;20140;-66
2021/12/04 03:42:14;;;;;;;24.33;8.32;;;21.90;66.10;;;;;;4161891;28;20084;-67
2021/12/04 03:44:18;;;;;;;20.58;7.55;;;22.00;67.10;;;;;;4161567;28;20045;-66
2021/12/04 03:46:24;;;;;;;17.80;7.72;;;22.10;65.90;;;;;;4159542;28;20063;-67
2021/12/04 03:50:37;;;;;;;21.60;8.07;;;22.20;65.70;;;;;;4160484;28;20041;-67
2021/12/04 03:52:42;;;;;;;24.27;8.80;;;22.20;65.50;;;;;;4158802;28;20132;-67
2021/12/04 03:54:46;;;;;;;17.67;8.05;;;22.30;65.30;;;;;;4158862;28;20045;-66
2021/12/04 03:57:00;;;;;;;21.48;7.85;;;22.30;65.40;;;;;;4159212;28;20053;-66
2021/12/04 03:59:05;;;;;;;20.55;8.23;;;22.30;65.10;;;;;;4156778;28;20046;-66
2021/12/04 04:01:10;;;;;;;23.60;8.10;;;22.30;65.30;;;;;;4159091;28;20116;-66
2021/12/04 04:03:15;;;;;;;17.95;7.93;;;22.30;65.10;;;;;;4158912;28;20042;-66
2021/12/04 04:05:20;;;;;;;16.48;7.60;;;22.30;65.60;;;;;;4158586;28;20091;-66
2021/12/04 04:07:24;;;;;;;20.00;8.85;;;22.50;65.70;;;;;;4155669;28;20499;-66
2021/12/04 04:09:28;;;;;;;19.65;8.85;;;22.50;65.40;;;;;;4158982;28;20058;-66
2021/12/04 04:11:36;;;;;;;20.95;8.80;;;22.50;65.00;;;;;;4156849;28;20042;-66
2021/12/04 04:13:43;;;;;;;22.27;8.45;;;22.60;64.90;;;;;;4161557;28;20073;-67
2021/12/04 04:15:48;;;;;;;22.23;8.63;;;22.60;64.10;;;;;;4161776;28;20392;-67
2021/12/04 04:17:52;;;;;;;20.52;7.78;;;22.80;63.00;;;;;;4161808;28;20065;-67
2021/12/04 04:19:57;;;;;;;19.90;7.85;;;22.90;63.40;;;;;;4160948;28;20057;-66
2021/12/04 04:22:01;;;;;;;17.58;8.32;;;22.90;63.60;;;;;;4162127;28;20431;-67
2021/12/04 04:24:10;;;;;;;21.77;8.50;;;22.80;63.90;;;;;;4161524;28;20060;-66
2021/12/04 04:26:14;;;;;;;18.35;8.35;;;22.80;63.70;;;;;;4161587;28;20057;-68
2021/12/04 04:28:18;;;;;;;15.88;8.30;;;22.90;62.70;;;;;;4170939;28;20487;-67
2021/12/04 04:30:24;;;;;;;21.60;9.10;;;23.00;63.20;;;;;;4160279;28;20073;-67
2021/12/04 04:32:29;;;;;;;16.27;8.05;;;23.10;63.60;;;;;;4161517;28;20132;-67
2021/12/04 04:34:35;;;;;;;17.00;7.78;;;23.00;63.30;;;;;;4161540;28;20053;-67
2021/12/04 04:38:51;;;;;;;17.98;7.78;;;23.10;63.30;;;;;;4160928;28;20250;-68
2021/12/04 05:10:40;;;;;;;19.73;7.40;;;23.70;61.30;;;;;;4161157;28;20068;-67
2021/12/04 05:12:54;;;;;;;23.42;7.53;;;23.90;61.10;;;;;;4161133;28;20416;-67
2021/12/04 05:15:01;;;;;;;15.45;7.50;;;24.00;61.10;;;;;;4160304;28;20050;-67
2021/12/04 05:19:26;;;;;;;14.77;7.50;;;24.00;60.20;;;;;;4160664;28;20068;-67
2021/12/04 05:21:30;;;;;;;22.08;7.68;;;24.00;60.60;;;;;;4152347;28;20614;-67
2021/12/04 05:23:53;;;;;;;17.75;7.35;;;24.00;61.00;;;;;;4158031;28;20456;-67
2021/12/04 05:25:57;;;;;;;18.92;8.15;;;24.00;61.40;;;;;;4157375;28;20061;-67
2021/12/04 05:28:04;;;;;;;15.50;7.97;;;24.10;61.20;;;;;;4157625;28;20293;-67
2021/12/04 05:30:09;;;;;;;17.00;7.93;;;24.10;59.80;;;;;;4158071;28;20083;-66
2021/12/04 05:32:16;;;;;;;19.00;7.93;;;24.20;59.80;;;;;;4155349;28;20107;-66
2021/12/04 05:34:20;;;;;;;20.42;7.35;;;24.20;60.40;;;;;;4156275;28;20045;-67
2021/12/04 05:36:25;;;;;;;18.35;7.10;;;24.20;60.40;;;;;;4157081;28;20077;-67
2021/12/04 05:38:35;;;;;;;16.27;6.97;;;24.20;60.10;;;;;;4155557;28;20053;-67
2021/12/04 05:40:43;;;;;;;20.83;7.80;;;24.30;60.00;;;;;;4155928;28;20053;-67
2021/12/04 05:43:01;;;;;;;15.75;7.35;;;24.40;59.50;;;;;;4157408;28;20075;-67
2021/12/04 05:45:13;;;;;;;16.98;6.80;;;24.30;59.00;;;;;;4157550;28;20049;-67
2021/12/04 05:49:27;;;;;;;11.32;6.47;;;24.30;58.90;;;;;;4157325;28;20045;-67
2021/12/04 05:51:49;;;;;;;15.70;7.15;;;24.30;59.10;;;;;;4156573;28;20108;-67
2021/12/04 05:56:20;;;;;;;24.25;7.47;;;24.40;60.00;;;;;;4155738;28;20575;-67
2021/12/04 05:58:30;;;;;;;20.95;7.50;;;24.40;59.80;;;;;;4156801;28;20495;-67
2021/12/04 06:00:35;;;;;;;16.23;6.82;;;24.50;58.20;;;;;;4157033;28;20144;-67
2021/12/04 06:02:40;;;;;;;21.38;6.90;;;24.40;58.30;;;;;;4157035;28;20038;-67
2021/12/04 06:04:45;;;;;;;20.80;7.45;;;24.70;56.90;;;;;;4157251;28;20092;-67
2021/12/04 06:06:50;;;;;;;17.05;7.20;;;24.80;58.20;;;;;;4155172;28;20041;-67
2021/12/04 06:08:55;;;;;;;18.33;7.03;;;24.70;58.10;;;;;;4156571;28;20050;-67
2021/12/04 06:11:00;;;;;;;20.20;7.20;;;24.60;58.80;;;;;;4156193;28;20037;-67
2021/12/04 06:13:05;;;;;;;16.77;7.25;;;24.70;58.80;;;;;;4156986;28;20052;-67
2021/12/04 06:15:11;;;;;;;12.63;6.90;;;24.80;57.40;;;;;;4156143;28;20040;-67
2021/12/04 06:17:18;;;;;;;13.75;7.20;;;24.80;57.30;;;;;;4154784;28;20041;-67
2021/12/04 06:23:57;;;;;;;16.35;7.28;;;24.70;58.30;;;;;;4155796;28;20602;-66
2021/12/04 06:26:02;;;;;;;22.13;7.47;;;24.70;58.50;;;;;;4157116;28;20050;-67
2021/12/04 06:28:07;;;;;;;14.23;7.57;;;24.70;58.20;;;;;;4155292;28;20084;-66
2021/12/04 06:30:15;;;;;;;16.40;7.30;;;24.80;58.10;;;;;;4154307;28;20041;-66
2021/12/04 06:32:21;;;;;;;16.17;6.82;;;24.80;58.40;;;;;;4178186;28;20425;-66
2021/12/04 06:34:27;;;;;;;12.10;6.88;;;24.90;59.00;;;;;;4155845;28;20091;-66
2021/12/04 06:36:32;;;;;;;20.33;7.70;;;24.90;58.00;;;;;;4157057;28;20049;-66
2021/12/04 06:38:36;;;;;;;16.95;7.60;;;24.90;57.30;;;;;;4156389;28;20107;-67
2021/12/04 06:40:41;;;;;;;13.50;7.57;;;24.90;57.30;;;;;;4156649;28;20103;-66
2021/12/04 06:42:46;;;;;;;18.55;7.95;;;25.00;56.40;;;;;;4156787;28;20054;-67
2021/12/04 06:44:53;;;;;;;12.65;7.65;;;25.00;56.50;;;;;;4156176;28;20059;-66
2021/12/04 06:46:59;;;;;;;17.77;7.78;;;24.90;56.90;;;;;;4156305;28;20056;-66
2021/12/04 06:49:27;;;;;;;18.65;7.57;;;25.00;57.10;;;;;;4157117;28;20056;-66
2021/12/04 06:55:53;;;;;;;13.82;7.18;;;24.90;57.20;;;;;;4156335;28;20144;-67
2021/12/04 06:57:58;;;;;;;17.42;6.95;;;24.90;57.30;;;;;;4154585;28;20045;-66
2021/12/04 07:00:04;;;;;;;12.80;7.10;;;25.10;56.80;;;;;;4156668;28;20358;-66
2021/12/04 07:02:09;;;;;;;15.68;6.88;;;25.10;56.80;;;;;;4156672;28;20257;-66
2021/12/04 07:04:16;;;;;;;11.40;6.78;;;25.20;56.20;;;;;;4156567;28;20049;-69
2021/12/04 07:06:22;;;;;;;17.67;6.90;;;25.30;55.90;;;;;;4155316;28;20045;-67
2021/12/04 07:08:26;;;;;;;17.90;7.18;;;25.20;55.90;;;;;;4155670;28;20045;-66
2021/12/04 07:10:33;;;;;;;11.00;6.55;;;25.30;56.10;;;;;;4155952;28;20066;-67
2021/12/04 07:12:37;;;;;;;12.18;7.20;;;25.30;56.50;;;;;;4154050;28;20298;-67
2021/12/04 07:14:42;;;;;;;17.10;7.43;;;25.30;56.30;;;;;;4159196;28;20079;-67
2021/12/04 07:16:47;;;;;;;12.65;6.65;;;25.30;56.50;;;;;;4158556;28;20685;-67
2021/12/04 07:18:53;;;;;;;12.30;5.70;;;25.20;56.80;;;;;;4157142;28;20136;-66
2021/12/04 07:20:57;;;;;;;10.90;6.10;;;25.30;56.70;;;;;;4156945;28;20435;-67
2021/12/04 07:23:01;;;;;;;15.95;6.43;;;25.30;56.20;;;;;;4159232;28;20053;-66
2021/12/04 07:25:06;;;;;;;16.20;6.60;;;25.30;55.70;;;;;;4158888;28;20057;-67
2021/12/04 07:27:12;;;;;;;12.88;6.40;;;25.20;56.30;;;;;;4160775;28;20081;-67
2021/12/04 07:29:16;;;;;;;13.80;6.40;;;25.20;56.60;;;;;;4156627;28;20487;-65
2021/12/04 07:31:20;;;;;;;16.45;6.35;;;25.20;55.90;;;;;;4157539;28;20451;-65
2021/12/04 07:33:25;;;;;;;11.63;5.97;;;25.20;54.70;;;;;;4158696;28;20644;-65
2021/12/04 07:35:29;;;;;;;14.85;7.45;;;25.30;54.60;;;;;;4158303;28;20042;-65
2021/12/04 07:37:35;;;;;;;14.70;6.68;;;25.30;54.40;;;;;;4157013;28;20076;-65
2021/12/04 07:39:39;;;;;;;18.63;6.95;;;25.30;54.70;;;;;;4158848;28;20048;-65
2021/12/04 07:41:43;;;;;;;18.80;7.13;;;25.30;54.70;;;;;;4158624;28;20140;-65
2021/12/04 07:43:48;;;;;;;15.15;6.45;;;25.30;55.20;;;;;;4157596;28;20407;-65
2021/12/04 07:45:53;;;;;;;13.60;6.97;;;25.30;54.90;;;;;;4156718;28;20136;-65
2021/12/04 07:47:57;;;;;;;14.60;7.13;;;25.20;55.10;;;;;;4150006;28;20099;-65
2021/12/04 07:50:02;;;;;;;12.00;6.13;;;25.30;54.00;;;;;;4156450;28;20080;-65
2021/12/04 07:52:07;;;;;;;13.93;6.70;;;25.40;54.40;;;;;;4157180;28;20350;-65
2021/12/04 07:54:13;;;;;;;12.32;6.50;;;25.30;53.10;;;;;;4157073;28;20298;-65
2021/12/04 07:56:18;;;;;;;14.30;7.10;;;25.40;54.00;;;;;;4151121;28;20505;-65
2021/12/04 07:58:22;;;;;;;12.30;6.65;;;25.40;54.40;;;;;;4122887;28;20101;-65
2021/12/04 08:00:27;;;;;;;12.02;6.72;;;25.40;54.60;;;;;;4141259;28;20077;-65
2021/12/04 08:02:32;;;;;;;15.80;6.75;;;25.30;54.80;;;;;;4141560;28;20057;-65
2021/12/04 08:04:37;;;;;;;16.73;6.85;;;25.30;54.80;;;;;;4140791;28;20191;-65
2021/12/04 08:06:41;;;;;;;13.43;7.60;;;25.30;55.00;;;;;;4151692;28;20656;-65
2021/12/04 08:08:46;;;;;;;18.60;8.70;;;25.40;55.40;;;;;;4124781;28;20046;-65
2021/12/04 08:10:51;;;;;;;16.25;8.27;;;25.40;55.50;;;;;;4136972;28;20061;-65
2021/12/04 08:12:56;;;;;;;13.23;7.50;;;25.40;55.50;;;;;;4142077;28;20050;-64
2021/12/04 08:15:04;;;;;;;16.00;6.63;;;25.30;55.60;;;;;;4143320;28;20056;-65
2021/12/04 08:17:09;;;;;;;14.02;6.30;;;25.30;55.50;;;;;;4136386;28;20544;-65
2021/12/04 08:19:14;;;;;;;12.30;6.57;;;25.20;55.50;;;;;;4139317;28;20042;-65
2021/12/04 08:21:19;;;;;;;13.80;6.55;;;25.20;55.00;;;;;;4143968;28;20049;-65
2021/12/04 08:23:24;;;;;;;15.07;7.13;;;25.30;54.90;;;;;;4147805;28;20057;-65
2021/12/04 08:25:31;;;;;;;12.77;6.93;;;25.30;55.00;;;;;;4137092;28;20054;-65
2021/12/04 08:27:37;;;;;;;14.98;7.10;;;25.30;54.50;;;;;;4147172;28;20168;-65
2021/12/04 08:29:42;;;;;;;15.80;7.30;;;25.30;54.50;;;;;;4156554;28;20052;-65
2021/12/04 08:31:47;;;;;;;16.40;7.13;;;25.40;54.40;;;;;;4153235;28;20443;-66
2021/12/04 08:33:52;;;;;;;14.77;7.25;;;25.40;54.30;;;;;;4155820;28;20041;-66
2021/12/04 08:35:56;;;;;;;15.05;7.22;;;25.40;54.60;;;;;;4156409;28;20057;-65
2021/12/04 08:38:00;;;;;;;19.10;8.13;;;25.40;55.30;;;;;;4156237;28;20065;-66
2021/12/04 08:40:10;;;;;;;20.90;8.77;;;25.40;55.00;;;;;;4154850;28;20616;-65
2021/12/04 08:42:14;;;;;;;19.75;8.57;;;25.40;54.60;;;;;;4156378;28;20053;-67
2021/12/04 08:44:19;;;;;;;13.98;8.13;;;25.30;55.20;;;;;;4155115;28;20152;-67
2021/12/04 08:46:24;;;;;;;12.18;7.30;;;25.30;55.40;;;;;;4154637;28;20049;-67
2021/12/04 08:48:29;;;;;;;15.27;6.82;;;25.30;52.50;;;;;;4156956;28;20049;-67
2021/12/04 08:50:34;;;;;;;12.95;6.65;;;25.30;53.60;;;;;;4157330;28;20581;-67
2021/12/04 08:52:40;;;;;;;15.77;6.80;;;25.30;51.50;;;;;;4157231;28;20041;-65
2021/12/04 08:54:44;;;;;;;12.48;6.45;;;25.30;52.40;;;;;;4153896;28;20503;-66
2021/12/04 08:56:49;;;;;;;17.38;7.05;;;25.30;53.20;;;;;;4158285;28;20045;-65
2021/12/04 08:58:53;;;;;;;16.30;6.85;;;25.30;53.80;;;;;;4154915;28;20605;-66
2021/12/04 09:01:00;;;;;;;14.10;7.18;;;25.20;53.60;;;;;;4158338;28;20057;-66
2021/12/04 09:03:05;;;;;;;17.80;7.18;;;25.20;53.30;;;;;;4158381;28;20072;-66
2021/12/04 09:05:09;;;;;;;12.63;6.70;;;25.20;53.10;;;;;;4157864;28;20053;-66
2021/12/04 09:07:15;;;;;;;18.83;7.18;;;25.20;53.00;;;;;;4155443;28;20049;-66
2021/12/04 09:09:19;;;;;;;15.75;6.70;;;25.20;53.30;;;;;;4159098;28;20435;-66
2021/12/04 09:11:34;;;;;;;13.68;6.63;;;25.20;53.10;;;;;;4158975;28;20052;-66
2021/12/04 09:13:40;;;;;;;13.43;6.63;;;25.20;52.90;;;;;;4156981;28;20051;-66
2021/12/04 09:15:45;;;;;;;14.30;6.13;;;25.20;53.50;;;;;;4158200;28;20045;-66
2021/12/04 09:17:50;;;;;;;12.70;6.25;;;25.20;53.60;;;;;;4158879;28;20042;-67
2021/12/04 09:19:55;;;;;;;16.33;6.65;;;25.20;53.30;;;;;;4158358;28;20587;-67
2021/12/04 09:21:59;;;;;;;11.20;6.85;;;25.10;53.60;;;;;;4156763;28;20569;-67
2021/12/04 09:24:24;;;;;;;16.52;6.50;;;25.10;54.00;;;;;;4158900;28;20385;-67
2021/12/04 09:26:40;;;;;;;16.40;6.50;;;25.10;53.30;;;;;;4156838;28;20041;-67
2021/12/04 09:28:54;;;;;;;17.27;7.13;;;25.10;54.10;;;;;;4157320;28;20049;-67
2021/12/04 09:31:22;;;;;;;19.88;7.63;;;25.10;53.50;;;;;;4158106;28;20045;-67
2021/12/04 10:05:23;;;;;;;20.55;10.00;;;24.80;54.80;;;;;;4157231;28;20387;-65
2021/12/04 10:14:55;;;;;;;21.92;10.57;;;24.70;55.60;;;;;;4157301;28;20048;-66
2021/12/04 10:19:24;;;;;;;20.70;10.40;;;24.60;55.60;;;;;;4154449;28;20076;-67
2021/12/04 10:33:10;;;;;;;33.15;14.93;;;24.30;55.40;;;;;;4153578;28;20593;-66
2021/12/04 10:35:20;;;;;;;26.27;14.05;;;24.30;55.80;;;;;;4152658;28;20041;-66
2021/12/04 10:37:27;;;;;;;35.55;14.00;;;24.30;55.90;;;;;;4155268;28;20053;-66
2021/12/04 10:39:32;;;;;;;32.97;14.13;;;24.30;56.00;;;;;;4155058;28;20083;-66
2021/12/04 10:41:39;;;;;;;31.73;12.23;;;24.30;56.00;;;;;;4152538;28;20034;-66
2021/12/04 10:43:44;;;;;;;31.40;13.38;;;24.30;56.20;;;;;;4155652;28;20528;-66
2021/12/04 10:45:52;;;;;;;46.15;13.68;;;24.30;56.20;;;;;;4155291;28;20053;-66
2021/12/04 10:47:59;;;;;;;31.67;12.07;;;24.30;56.50;;;;;;4152214;28;20034;-66
2021/12/04 10:54:51;;;;;;;35.00;14.48;;;24.10;57.60;;;;;;4156420;28;20045;-66
2021/12/04 10:57:15;;;;;;;30.13;13.93;;;24.10;57.90;;;;;;4156705;28;20169;-66
2021/12/04 10:59:38;;;;;;;31.00;13.38;;;24.10;58.20;;;;;;4156294;28;20168;-66
2021/12/04 11:04:10;;;;;;;30.88;16.25;;;24.00;58.70;;;;;;4158237;28;20054;-66
2021/12/04 11:22:30;;;;;;;39.42;23.58;;;23.60;61.60;;;;;;4154804;28;20057;-66
2021/12/04 11:38:39;;;;;;;50.55;26.00;;;23.30;62.50;;;;;;4157829;28;20108;-67
2021/12/04 11:43:03;;;;;;;47.85;24.45;;;23.30;62.80;;;;;;4157182;28;20128;-66
2021/12/04 11:45:21;;;;;;;44.88;23.35;;;23.20;63.40;;;;;;4147624;28;20124;-67
2021/12/04 11:47:34;;;;;;;45.97;23.10;;;23.20;63.40;;;;;;4156243;28;20515;-66
2021/12/04 11:49:38;;;;;;;;;;;23.20;63.10;;;;;;4179061;28;20515;-66
2021/12/04 11:51:57;;;;;;;;;;;23.10;63.40;;;;;;4160013;28;19957;-67
2021/12/04 11:54:10;;;;;;;44.25;22.27;;;23.10;63.60;;;;;;4170354;28;19925;-67
2021/12/04 11:56:16;;;;;;;42.85;21.33;;;23.10;63.40;;;;;;4169931;28;20071;-67
2021/12/04 11:58:27;;;;;;;40.95;21.10;;;23.10;63.50;;;;;;4171468;28;20053;-68
2021/12/04 12:00:35;;;;;;;50.00;25.20;;;23.00;63.50;;;;;;4174916;28;20044;-69
2021/12/04 12:02:39;;;;;;;112.38;56.03;;;23.00;63.60;;;;;;4177485;28;20064;-68
2021/12/04 12:04:49;;;;;;;96.72;55.13;;;22.90;63.20;;;;;;4176293;28;20103;-69
2021/12/04 12:06:54;;;;;;;81.60;47.40;;;22.90;63.40;;;;;;4175687;28;20051;-69
2021/12/04 12:09:06;;;;;;;83.95;42.05;;;22.90;63.30;;;;;;4190464;28;20550;-69
2021/12/04 12:11:27;;;;;;;65.47;38.17;;;22.90;63.40;;;;;;4170993;28;20037;-69
2021/12/04 12:13:39;;;;;;;61.95;38.63;;;22.90;63.40;;;;;;4176490;28;20136;-69
2021/12/04 12:15:47;;;;;;;56.83;35.53;;;22.80;61.60;;;;;;4174730;28;20056;-69
2021/12/04 12:17:54;;;;;;;62.97;31.60;;;22.70;62.70;;;;;;4176722;28;20045;-69
2021/12/04 12:19:58;;;;;;;58.75;35.53;;;22.80;62.70;;;;;;4174858;28;20321;-69
2021/12/04 12:32:03;;;;;;;60.65;29.33;;;22.70;62.90;;;;;;4160987;28;20152;-69
2021/12/04 12:36:02;;;;;;;65.43;42.40;;;22.70;62.70;;;;;;4162245;28;20072;-68
2021/12/04 12:36:45;;;;;;;56.70;33.03;;;22.70;63.00;;;;;;4159456;28;20033;-69
2021/12/04 12:38:55;;;;;;;63.42;30.15;;;22.70;63.30;;;;;;4143086;28;20084;-69
2021/12/04 12:41:09;;;;;;;66.07;30.92;;;22.60;63.50;;;;;;4142962;28;20129;-68
2021/12/04 12:43:16;;;;;;;69.60;28.80;;;22.60;63.80;;;;;;4143518;28;20074;-69
2021/12/04 12:45:29;;;;;;;70.10;31.52;;;22.60;64.10;;;;;;4143417;28;20088;-68
2021/12/04 12:47:47;;;;;;;72.70;31.55;;;22.50;65.20;;;;;;4143880;28;20052;-69
2021/12/04 12:49:52;;;;;;;61.40;29.88;;;22.50;65.80;;;;;;4143425;28;20046;-69
2021/12/04 12:52:07;;;;;;;66.32;30.85;;;22.50;66.30;;;;;;4143419;28;20076;-69
2021/12/04 12:54:21;;;;;;;62.38;31.70;;;22.50;66.90;;;;;;4141679;28;20483;-69
2021/12/04 12:56:27;;;;;;;62.47;32.50;;;22.60;66.80;;;;;;4157040;28;20064;-69
2021/12/04 12:58:39;;;;;;;72.63;30.70;;;22.50;67.10;;;;;;4143468;28;20041;-68
2021/12/04 13:12:18;;;;;;;58.97;30.90;;;22.40;67.30;;;;;;4159843;28;20049;-69
2021/12/04 13:14:31;;;;;;;58.28;32.55;;;22.40;67.40;;;;;;4161476;28;20057;-69
2021/12/04 13:16:36;;;;;;;59.40;30.73;;;22.40;67.40;;;;;;4161111;28;20041;-69
2021/12/04 13:18:41;;;;;;;73.97;40.33;;;22.40;66.90;;;;;;4159013;28;20044;-67
2021/12/04 13:20:45;;;;;;;87.82;51.38;;;22.30;66.30;;;;;;4157401;28;20586;-68
2021/12/04 13:22:49;;;;;;;82.90;47.63;;;22.30;66.60;;;;;;4156822;28;20045;-68
2021/12/04 13:24:55;;;;;;;70.85;41.80;;;22.20;66.70;;;;;;4158349;28;20111;-68
2021/12/04 13:29:15;;;;;;;72.78;38.10;;;22.10;66.70;;;;;;4157503;28;20053;-68
2021/12/04 13:31:20;;;;;;;56.08;32.67;;;22.20;66.70;;;;;;4159614;28;20586;-68
2021/12/04 13:33:24;;;;;;;53.45;31.48;;;22.20;66.90;;;;;;4159458;28;20490;-64
2021/12/04 13:35:28;;;;;;;48.65;29.13;;;22.20;67.10;;;;;;4159109;28;20157;-68
2021/12/04 13:37:33;;;;;;;48.75;27.85;;;22.10;67.20;;;;;;4157135;28;20045;-68
2021/12/04 13:39:39;;;;;;;55.50;29.40;;;22.10;67.40;;;;;;4157956;28;20155;-68
2021/12/04 13:41:43;;;;;;;52.90;29.80;;;22.10;67.70;;;;;;4158659;28;20049;-68
2021/12/04 13:43:55;;;;;;;51.67;27.65;;;22.00;67.70;;;;;;4156845;28;20034;-68
2021/12/04 13:46:03;;;;;;;57.15;29.17;;;22.00;67.90;;;;;;4157961;28;20507;-68
2021/12/04 13:48:08;;;;;;;65.68;31.05;;;22.00;68.70;;;;;;4156684;28;20049;-68
2021/12/04 13:52:32;;;;;;;44.78;29.15;;;22.00;68.90;;;;;;4159380;28;20056;-68